createdAt,value
2022-12-18T00:01:35.870Z,101665.22
2022-12-18T00:04:06.783Z,101695.72
2022-12-18T00:06:35.652Z,101697.56
2022-12-18T00:09:04.371Z,101699.22
2022-12-18T00:11:32.831Z,101701.09
2022-12-18T00:14:01.310Z,101716.63
2022-12-18T00:16:31.067Z,101691.09
2022-12-18T00:18:58.446Z,101722.34
2022-12-18T00:21:26.765Z,101718.81
2022-12-18T00:23:54.763Z,101691.25
2022-12-18T00:26:33.751Z,101737.59
2022-12-18T00:29:14.891Z,101685.75
2022-12-18T00:31:44.683Z,101707.56
2022-12-18T00:34:13.804Z,101739.31
2022-12-18T00:36:42.110Z,101747.56
2022-12-18T00:39:11.754Z,101764.91
2022-12-18T00:41:57.887Z,101723.63
2022-12-18T00:44:26.390Z,101757.66
2022-12-18T00:46:53.709Z,101755.75
2022-12-18T00:49:21.683Z,101774.91
2022-12-18T00:51:49.023Z,101746.75
2022-12-18T00:54:17.181Z,101763.19
2022-12-18T00:56:49.407Z,101771.03
2022-12-18T00:59:18.664Z,101762.28
2022-12-18T01:01:46.527Z,101777.84
2022-12-18T01:04:15.003Z,101767.41
2022-12-18T01:06:45.162Z,101784.69
2022-12-18T01:09:12.552Z,101743.56
2022-12-18T01:11:40.376Z,101770.41
2022-12-18T01:14:07.785Z,101796.66
2022-12-18T01:16:35.201Z,101792.41
2022-12-18T01:19:05.664Z,101789.63
2022-12-18T01:21:33.724Z,101776.44
2022-12-18T01:24:05.382Z,101797.47
2022-12-18T01:26:32.784Z,101772.97
2022-12-18T01:29:00.393Z,101803.38
2022-12-18T01:31:30.931Z,101803.28
2022-12-18T01:34:01.016Z,101761.06
2022-12-18T01:36:31.258Z,101812.66
2022-12-18T01:39:02.060Z,101787.00
2022-12-18T01:41:51.081Z,101808.84
2022-12-18T01:44:49.372Z,101827.28
2022-12-18T01:47:34.861Z,101813.06
2022-12-18T01:50:08.429Z,101807.63
2022-12-18T01:52:46.064Z,101826.13
2022-12-18T01:55:16.117Z,101785.09
2022-12-18T01:57:44.002Z,101836.03
2022-12-18T02:00:16.986Z,101821.09
2022-12-18T02:02:46.252Z,101781.13
2022-12-18T02:05:18.941Z,101835.91
2022-12-18T02:08:10.566Z,101832.22
2022-12-18T02:10:48.567Z,101849.69
2022-12-18T02:13:57.384Z,101854.22
2022-12-18T02:16:36.848Z,101857.28
2022-12-18T02:19:33.514Z,101866.47
2022-12-18T02:22:42.943Z,101880.25
2022-12-18T02:25:28.807Z,101882.47
2022-12-18T02:28:01.460Z,101891.22
2022-12-18T02:30:34.739Z,101883.94
2022-12-18T02:33:05.050Z,101857.53
2022-12-18T02:35:36.317Z,101875.78
2022-12-18T02:38:05.390Z,101866.47
2022-12-18T02:40:38.645Z,101854.66
2022-12-18T02:43:13.183Z,101884.91
2022-12-18T02:46:30.205Z,101886.97
2022-12-18T02:49:06.538Z,101860.94
2022-12-18T02:51:46.110Z,101857.25
2022-12-18T02:54:22.076Z,101865.28
2022-12-18T02:56:56.798Z,101868.63
2022-12-18T02:59:45.050Z,101888.94
2022-12-18T03:02:16.176Z,101886.66
2022-12-18T03:04:54.159Z,101884.06
2022-12-18T03:07:28.811Z,101882.53
2022-12-18T03:10:00.043Z,101880.72
2022-12-18T03:12:35.670Z,101896.59
2022-12-18T03:15:29.605Z,101897.38
2022-12-18T03:18:14.582Z,101890.47
2022-12-18T03:20:45.161Z,101883.38
2022-12-18T03:23:26.321Z,101864.13
2022-12-18T03:25:57.713Z,101863.25
2022-12-18T03:28:31.520Z,101913.13
2022-12-18T03:31:06.161Z,101897.53
2022-12-18T03:33:41.214Z,101875.56
2022-12-18T03:36:09.392Z,101923.31
2022-12-18T03:38:36.882Z,101908.44
2022-12-18T03:41:32.727Z,101915.72
2022-12-18T03:44:24.955Z,101925.22
2022-12-18T03:47:15.199Z,101930.28
2022-12-18T03:49:54.934Z,101931.25
2022-12-18T03:52:29.348Z,101924.56
2022-12-18T03:55:00.558Z,101903.56
2022-12-18T03:57:32.356Z,101938.47
2022-12-18T04:00:06.046Z,101949.75
2022-12-18T04:02:48.310Z,101943.53
2022-12-18T04:05:25.655Z,101957.72
2022-12-18T04:07:54.959Z,101962.81
2022-12-18T04:10:23.121Z,101974.97
2022-12-18T04:12:51.917Z,101948.03
2022-12-18T04:15:19.963Z,101958.53
2022-12-18T04:17:51.113Z,101934.41
2022-12-18T04:20:22.259Z,101956.59
2022-12-18T04:22:49.593Z,101965.72
2022-12-18T04:25:18.778Z,101963.69
2022-12-18T04:28:05.426Z,101963.91
2022-12-18T04:30:33.638Z,101995.41
2022-12-18T04:33:01.030Z,101970.50
2022-12-18T04:35:31.174Z,101998.88
2022-12-18T04:37:58.543Z,101946.16
2022-12-18T04:40:25.984Z,101985.50
2022-12-18T04:42:53.511Z,101993.66
2022-12-18T04:45:20.853Z,102021.59
2022-12-18T04:47:48.133Z,102008.66
2022-12-18T04:50:15.672Z,102002.63
2022-12-18T04:52:43.006Z,102008.25
2022-12-18T04:55:10.305Z,101992.66
2022-12-18T04:57:37.685Z,101996.34
2022-12-18T05:00:07.013Z,102005.97
2022-12-18T05:02:34.429Z,101995.94
2022-12-18T05:05:01.848Z,102001.41
2022-12-18T05:07:29.108Z,102030.75
2022-12-18T05:09:56.486Z,102016.00
2022-12-18T05:12:24.815Z,102024.22
2022-12-18T05:14:52.437Z,102029.22
2022-12-18T05:17:19.733Z,102044.13
2022-12-18T05:19:47.058Z,102026.13
2022-12-18T05:22:14.486Z,102027.41
2022-12-18T05:24:41.783Z,102013.91
2022-12-18T05:27:09.067Z,102039.13
2022-12-18T05:29:36.368Z,102053.13
2022-12-18T05:32:03.803Z,102069.00
2022-12-18T05:34:31.129Z,102070.72
2022-12-18T05:36:58.441Z,102077.63
2022-12-18T05:39:25.881Z,102073.31
2022-12-18T05:41:53.152Z,102060.88
2022-12-18T05:44:20.484Z,102089.91
2022-12-18T05:46:47.851Z,102076.91
2022-12-18T05:49:15.200Z,102095.19
2022-12-18T05:51:42.520Z,102100.09
2022-12-18T05:54:10.101Z,102095.69
2022-12-18T05:56:37.598Z,102098.34
2022-12-18T05:59:04.930Z,102085.09
2022-12-18T06:01:32.304Z,102094.56
2022-12-18T06:04:00.008Z,102083.69
2022-12-18T06:06:28.735Z,102101.91
2022-12-18T06:08:57.560Z,102107.00
2022-12-18T06:11:27.475Z,102101.97
2022-12-18T06:13:58.704Z,102120.34
2022-12-18T06:16:28.138Z,102106.00
2022-12-18T06:19:03.563Z,102123.56
2022-12-18T06:21:31.993Z,102127.53
2022-12-18T06:24:00.641Z,102115.59
2022-12-18T06:26:28.683Z,102124.25
2022-12-18T06:28:56.531Z,102126.00
2022-12-18T06:31:24.209Z,102097.38
2022-12-18T06:33:51.669Z,102121.97
2022-12-18T06:36:19.289Z,102119.41
2022-12-18T06:38:46.730Z,102133.72
2022-12-18T06:41:19.998Z,102140.31
2022-12-18T06:43:47.845Z,102112.84
2022-12-18T06:46:15.293Z,102119.16
2022-12-18T06:48:42.845Z,102155.78
2022-12-18T06:51:10.116Z,102155.47
2022-12-18T06:53:37.875Z,102165.47
2022-12-18T06:56:10.409Z,102152.16
2022-12-18T06:58:39.769Z,102153.84
2022-12-18T07:01:09.575Z,102152.41
2022-12-18T07:03:38.657Z,102192.66
2022-12-18T07:06:07.062Z,102171.22
2022-12-18T07:08:34.373Z,102180.88
2022-12-18T07:11:04.795Z,102168.00
2022-12-18T07:13:32.861Z,102179.63
2022-12-18T07:16:16.007Z,102186.03
2022-12-18T07:18:45.054Z,102199.63
2022-12-18T07:21:16.463Z,102172.31
2022-12-18T07:23:44.785Z,102200.44
2022-12-18T07:26:13.629Z,102193.44
2022-12-18T07:28:42.332Z,102182.84
2022-12-18T07:31:16.047Z,102194.72
2022-12-18T07:33:43.656Z,102215.78
2022-12-18T07:36:11.703Z,102221.88
2022-12-18T07:38:39.567Z,102229.75
2022-12-18T07:41:15.072Z,102207.63
2022-12-18T07:43:43.219Z,102218.00
2022-12-18T07:46:13.450Z,102242.94
2022-12-18T07:48:42.478Z,102228.00
2022-12-18T07:51:11.189Z,102249.69
2022-12-18T07:53:39.281Z,102236.59
2022-12-18T07:56:28.563Z,102242.22
2022-12-18T07:58:57.086Z,102244.34
2022-12-18T08:01:24.860Z,102261.34
2022-12-18T08:03:52.708Z,102245.69
2022-12-18T08:06:23.767Z,102263.59
2022-12-18T08:08:55.805Z,102270.53
2022-12-18T08:11:25.376Z,102249.41
2022-12-18T08:13:53.385Z,102278.63
2022-12-18T08:16:21.710Z,102281.56
2022-12-18T08:18:49.729Z,102235.63
2022-12-18T08:21:24.059Z,102276.25
2022-12-18T08:23:56.378Z,102298.19
2022-12-18T08:26:26.278Z,102308.13
2022-12-18T08:28:54.810Z,102310.41
2022-12-18T08:31:22.743Z,102315.59
2022-12-18T08:33:53.746Z,102316.94
2022-12-18T08:36:23.149Z,102222.22
2022-12-18T08:38:52.685Z,102324.44
2022-12-18T08:41:20.507Z,102318.59
2022-12-18T08:44:06.436Z,102272.84
2022-12-18T08:46:37.320Z,102318.34
2022-12-18T08:49:06.433Z,102323.81
2022-12-18T08:51:34.538Z,102301.41
2022-12-18T08:54:02.400Z,102323.03
2022-12-18T08:56:31.044Z,102319.94
2022-12-18T08:58:58.737Z,102323.69
2022-12-18T09:01:27.708Z,102315.81
2022-12-18T09:03:55.266Z,102322.81
2022-12-18T09:06:25.805Z,102316.34
2022-12-18T09:08:53.125Z,102273.38
2022-12-18T09:11:25.875Z,102322.75
2022-12-18T09:13:54.897Z,102322.41
2022-12-18T09:16:28.789Z,102298.31
2022-12-18T09:19:00.793Z,102291.75
2022-12-18T09:21:35.969Z,102303.44
2022-12-18T09:24:08.941Z,102321.53
2022-12-18T09:26:38.073Z,102314.81
2022-12-18T09:29:08.267Z,102335.06
2022-12-18T09:31:36.230Z,102320.22
2022-12-18T09:34:03.560Z,102316.69
2022-12-18T09:36:33.724Z,102323.44
2022-12-18T09:39:06.301Z,102312.88
2022-12-18T09:41:55.779Z,102337.94
2022-12-18T09:44:47.093Z,102331.00
2022-12-18T09:47:14.442Z,102334.75
2022-12-18T09:49:45.015Z,102323.56
2022-12-18T09:52:34.471Z,102332.75
2022-12-18T09:55:10.686Z,102329.47
2022-12-18T09:57:46.244Z,102291.81
2022-12-18T10:00:21.089Z,102322.59
2022-12-18T10:02:50.042Z,102319.16
2022-12-18T10:05:23.776Z,102309.91
2022-12-18T10:07:56.339Z,102310.97
2022-12-18T10:10:51.030Z,102310.31
2022-12-18T10:13:22.687Z,102296.03
2022-12-18T10:16:16.926Z,102238.91
2022-12-18T10:19:11.575Z,102282.47
2022-12-18T10:22:03.191Z,102301.03
2022-12-18T10:24:36.487Z,102290.41
2022-12-18T10:27:30.420Z,102283.91
2022-12-18T10:29:58.776Z,102278.06
2022-12-18T10:32:28.990Z,102283.28
2022-12-18T10:35:00.842Z,102236.97
2022-12-18T10:37:30.892Z,102287.00
2022-12-18T10:40:19.931Z,102279.66
2022-12-18T10:43:12.013Z,102271.66
2022-12-18T10:45:39.235Z,102277.31
2022-12-18T10:48:19.362Z,102270.50
2022-12-18T10:53:38.523Z,102255.03
2022-12-18T10:56:07.808Z,102249.88
2022-12-18T10:58:40.905Z,102269.81
2022-12-18T11:01:11.711Z,102270.94
2022-12-18T11:03:42.481Z,102253.59
2022-12-18T11:06:18.998Z,102269.91
2022-12-18T11:09:00.192Z,102263.31
2022-12-18T11:11:28.189Z,102275.22
2022-12-18T11:14:02.954Z,102264.34
2022-12-18T11:16:57.898Z,102250.03
2022-12-18T11:19:37.466Z,102261.19
2022-12-18T11:22:24.146Z,102251.13
2022-12-18T11:28:01.553Z,102257.22
2022-12-18T11:30:35.790Z,102218.75
2022-12-18T11:33:23.184Z,102258.06
2022-12-18T11:35:52.780Z,102262.81
2022-12-18T11:38:40.353Z,102253.22
2022-12-18T11:42:01.327Z,102258.88
2022-12-18T11:44:42.093Z,102266.44
2022-12-18T11:47:27.729Z,102276.22
2022-12-18T11:50:00.517Z,102265.78
2022-12-18T11:52:40.082Z,102250.34
2022-12-18T11:55:30.028Z,102265.09
2022-12-18T11:58:06.389Z,102288.22
2022-12-18T12:00:41.427Z,102251.00
2022-12-18T12:03:08.881Z,102292.81
2022-12-18T12:05:36.244Z,102289.94
2022-12-18T12:08:54.093Z,102291.91
2022-12-18T12:11:57.477Z,102292.13
2022-12-18T12:14:24.703Z,102287.41
2022-12-18T12:17:00.202Z,102271.56
2022-12-18T12:19:35.778Z,102256.91
2022-12-18T12:22:22.468Z,102261.56
2022-12-18T12:25:02.884Z,102264.19
2022-12-18T12:27:42.516Z,102276.63
2022-12-18T12:30:21.627Z,102234.31
2022-12-18T12:33:19.364Z,102261.47
2022-12-18T12:36:15.947Z,102257.09
2022-12-18T12:38:52.522Z,102234.50
2022-12-18T12:41:47.063Z,102252.09
2022-12-18T12:44:21.085Z,102252.53
2022-12-18T12:46:50.350Z,102202.06
2022-12-18T12:49:25.361Z,102250.75
2022-12-18T12:52:13.494Z,102262.53
2022-12-18T12:54:42.140Z,102238.88
2022-12-18T12:57:13.341Z,102269.56
2022-12-18T13:00:05.643Z,102269.06
2022-12-18T13:02:51.459Z,102266.78
2022-12-18T13:05:59.655Z,102270.09
2022-12-18T13:08:33.329Z,102248.84
2022-12-18T13:11:21.393Z,102261.47
2022-12-18T13:13:54.019Z,102270.56
2022-12-18T13:16:27.542Z,102261.78
2022-12-18T13:19:00.072Z,102263.19
2022-12-18T13:21:33.537Z,102291.00
2022-12-18T13:24:36.235Z,102283.03
2022-12-18T13:27:42.467Z,102284.38
2022-12-18T13:30:34.569Z,102296.94
2022-12-18T13:33:14.633Z,102298.28
2022-12-18T13:35:54.485Z,102305.59
2022-12-18T13:38:22.189Z,102312.84
2022-12-18T13:40:49.529Z,102318.56
2022-12-18T13:43:28.927Z,102292.44
2022-12-18T13:46:07.762Z,102327.00
2022-12-18T13:48:39.210Z,102322.56
2022-12-18T13:51:11.216Z,102315.06
2022-12-18T13:53:47.665Z,102327.50
2022-12-18T13:56:23.813Z,102339.75
2022-12-18T13:59:16.567Z,102318.69
2022-12-18T14:01:49.581Z,102326.47
2022-12-18T14:04:22.410Z,102322.94
2022-12-18T14:06:53.659Z,102329.41
2022-12-18T14:09:37.101Z,102329.91
2022-12-18T14:12:25.386Z,102305.63
2022-12-18T14:14:54.970Z,102346.50
2022-12-18T14:17:24.416Z,102330.81
2022-12-18T14:19:52.718Z,102358.63
2022-12-18T14:22:30.832Z,102331.31
2022-12-18T14:25:13.493Z,102366.56
2022-12-18T14:27:46.553Z,102367.84
2022-12-18T14:30:46.432Z,102348.66
2022-12-18T14:33:16.334Z,102358.72
2022-12-18T14:35:54.059Z,102362.75
2022-12-18T14:38:22.301Z,102361.56
2022-12-18T14:40:54.953Z,102368.25
2022-12-18T14:43:23.150Z,102347.06
2022-12-18T14:45:52.482Z,102369.63
2022-12-18T14:48:23.400Z,102380.13
2022-12-18T14:51:18.712Z,102356.63
2022-12-18T14:53:56.168Z,102373.31
2022-12-18T14:56:27.216Z,102380.25
2022-12-18T14:59:03.365Z,102395.75
2022-12-18T15:01:33.130Z,102407.63
2022-12-18T15:04:02.510Z,102379.81
2022-12-18T15:06:38.447Z,102409.50
2022-12-18T15:09:22.869Z,102396.06
2022-12-18T15:11:51.385Z,102392.03
2022-12-18T15:14:37.890Z,102403.75
2022-12-18T15:17:15.994Z,102381.28
2022-12-18T15:19:45.818Z,102387.13
2022-12-18T15:22:36.191Z,102417.44
2022-12-18T15:25:23.450Z,102416.91
2022-12-18T15:27:50.885Z,102430.47
2022-12-18T15:30:21.113Z,102443.81
2022-12-18T15:32:49.862Z,102451.94
2022-12-18T15:35:23.508Z,102426.94
2022-12-18T15:37:52.574Z,102423.34
2022-12-18T15:40:22.625Z,102438.09
2022-12-18T15:43:13.496Z,102461.72
2022-12-18T15:45:40.989Z,102463.66
2022-12-18T15:48:26.490Z,102447.38
2022-12-18T15:50:57.796Z,102417.91
2022-12-18T15:53:28.958Z,102462.50
2022-12-18T15:56:14.808Z,102413.47
2022-12-18T15:58:42.200Z,102481.19
2022-12-18T16:01:11.431Z,102486.84
2022-12-18T16:03:39.378Z,102484.03
2022-12-18T16:06:07.292Z,102493.53
2022-12-18T16:08:37.446Z,102512.47
2022-12-18T16:11:07.107Z,102500.59
2022-12-18T16:13:34.453Z,102503.25
2022-12-18T16:16:02.169Z,102502.53
2022-12-18T16:18:29.698Z,102492.81
2022-12-18T16:20:57.001Z,102504.97
2022-12-18T16:23:24.335Z,102517.19
2022-12-18T16:25:52.630Z,102512.41
2022-12-18T16:28:19.990Z,102516.72
2022-12-18T16:30:47.326Z,102520.13
2022-12-18T16:33:14.708Z,102528.25
2022-12-18T16:35:42.017Z,102524.81
2022-12-18T16:38:10.304Z,102541.28
2022-12-18T16:40:58.876Z,102554.06
2022-12-18T16:43:26.266Z,102560.78
2022-12-18T16:45:53.566Z,102532.00
2022-12-18T16:48:21.197Z,102536.59
2022-12-18T16:50:48.472Z,102539.69
2022-12-18T16:53:15.748Z,102535.41
2022-12-18T16:55:43.076Z,102554.06
2022-12-18T16:58:11.170Z,102546.81
2022-12-18T17:00:39.191Z,102539.25
2022-12-18T17:03:06.724Z,102549.97
2022-12-18T17:05:35.222Z,102518.50
2022-12-18T17:08:02.591Z,102564.19
2022-12-18T17:10:29.916Z,102540.69
2022-12-18T17:12:57.269Z,102523.81
2022-12-18T17:15:24.530Z,102546.44
2022-12-18T17:17:51.852Z,102543.25
2022-12-18T17:20:19.199Z,102539.31
2022-12-18T17:22:49.501Z,102553.94
2022-12-18T17:25:17.298Z,102572.69
2022-12-18T17:27:44.565Z,102555.44
2022-12-18T17:30:12.291Z,102545.69
2022-12-18T17:32:39.578Z,102581.75
2022-12-18T17:35:07.650Z,102553.06
2022-12-18T17:37:36.082Z,102569.81
2022-12-18T17:40:03.861Z,102557.00
2022-12-18T17:42:31.200Z,102568.72
2022-12-18T17:44:58.459Z,102555.53
2022-12-18T17:47:25.767Z,102538.59
2022-12-18T17:49:53.168Z,102583.72
2022-12-18T17:52:22.045Z,102592.25
2022-12-18T17:54:49.429Z,102553.16
2022-12-18T17:57:16.733Z,102599.56
2022-12-18T17:59:44.114Z,102583.16
2022-12-18T18:02:12.244Z,102581.34
2022-12-18T18:04:39.745Z,102600.28
2022-12-18T18:07:07.136Z,102591.16
2022-12-18T18:09:34.560Z,102575.03
2022-12-18T18:12:20.791Z,102574.06
2022-12-18T18:14:48.164Z,102550.41
2022-12-18T18:17:15.609Z,102581.97
2022-12-18T18:19:44.163Z,102552.03
2022-12-18T18:22:15.276Z,102592.50
2022-12-18T18:24:43.737Z,102551.47
2022-12-18T18:27:11.006Z,102583.38
2022-12-18T18:29:38.601Z,102581.69
2022-12-18T18:32:06.061Z,102560.88
2022-12-18T18:34:33.601Z,102559.28
2022-12-18T18:37:01.716Z,102594.88
2022-12-18T18:39:29.993Z,102552.72
2022-12-18T18:41:57.539Z,102587.78
2022-12-18T18:44:26.100Z,102523.09
2022-12-18T18:46:58.289Z,102594.69
2022-12-18T18:49:27.874Z,102598.09
2022-12-18T18:51:57.331Z,102567.41
2022-12-18T18:54:26.117Z,102575.75
2022-12-18T18:57:19.456Z,102570.78
2022-12-18T18:59:41.353Z,102573.97
2022-12-18T19:02:16.652Z,102571.56
2022-12-18T19:04:46.056Z,102580.31
2022-12-18T19:07:18.515Z,102580.88
2022-12-18T19:10:03.950Z,102575.91
2022-12-18T19:12:52.593Z,102573.88
2022-12-18T19:15:22.215Z,102593.84
2022-12-18T19:17:49.542Z,102587.59
2022-12-18T19:20:17.579Z,102604.13
2022-12-18T19:22:49.013Z,102606.06
2022-12-18T19:25:29.942Z,102561.53
2022-12-18T19:28:07.496Z,102576.34
2022-12-18T19:30:40.922Z,102619.09
2022-12-18T19:33:34.546Z,102616.25
2022-12-18T19:35:55.853Z,102607.06
2022-12-18T19:38:23.364Z,102591.66
2022-12-18T19:40:50.812Z,102595.81
2022-12-18T19:43:18.498Z,102552.66
2022-12-18T19:45:45.865Z,102586.84
2022-12-18T19:48:14.714Z,102597.97
2022-12-18T19:50:42.422Z,102644.31
2022-12-18T19:53:09.810Z,102605.22
2022-12-18T19:55:42.325Z,102589.03
2022-12-18T19:58:12.107Z,102615.69
2022-12-18T20:00:39.615Z,102533.69
2022-12-18T20:03:17.662Z,102616.47
2022-12-18T20:05:50.727Z,102604.56
2022-12-18T20:08:18.026Z,102624.63
2022-12-18T20:10:49.019Z,102615.56
2022-12-18T20:13:16.599Z,102635.00
2022-12-18T20:15:45.513Z,102616.75
2022-12-18T20:18:13.957Z,102628.69
2022-12-18T20:20:45.052Z,102664.81
2022-12-18T20:23:13.509Z,102622.97
2022-12-18T20:25:40.863Z,102629.78
2022-12-18T20:28:08.459Z,102617.34
2022-12-18T20:30:35.841Z,102636.38
2022-12-18T20:33:03.246Z,102636.69
2022-12-18T20:35:32.391Z,102583.81
2022-12-18T20:37:59.871Z,102619.22
2022-12-18T20:40:28.553Z,102656.22
2022-12-18T20:42:55.928Z,102613.31
2022-12-18T20:45:23.654Z,102616.78
2022-12-18T20:47:54.319Z,102654.03
2022-12-18T20:50:21.636Z,102651.97
2022-12-18T20:52:48.972Z,102660.56
2022-12-18T20:55:16.460Z,102643.78
2022-12-18T20:57:43.884Z,102680.13
2022-12-18T21:00:12.368Z,102653.00
2022-12-18T21:02:42.296Z,102660.88
2022-12-18T21:05:09.662Z,102663.84
2022-12-18T21:07:37.069Z,102651.00
2022-12-18T21:10:05.663Z,102647.66
2022-12-18T21:12:44.047Z,102664.06
2022-12-18T21:15:28.547Z,102664.84
2022-12-18T21:17:56.268Z,102653.81
2022-12-18T21:20:25.990Z,102668.41
2022-12-18T21:22:54.058Z,102659.78
2022-12-18T21:25:24.631Z,102631.06
2022-12-18T21:27:51.905Z,102612.13
2022-12-18T21:30:19.457Z,102633.63
2022-12-18T21:32:47.633Z,102664.59
2022-12-18T21:35:15.518Z,102618.63
2022-12-18T21:37:44.608Z,102672.13
2022-12-18T21:40:13.370Z,102655.34
2022-12-18T21:42:59.297Z,102631.28
2022-12-18T21:45:26.833Z,102669.03
2022-12-18T21:47:54.452Z,102666.97
2022-12-18T21:50:21.733Z,102644.03
2022-12-18T21:52:49.057Z,102655.16
2022-12-18T21:55:16.512Z,102684.97
2022-12-18T21:57:43.827Z,102631.75
2022-12-18T22:00:18.299Z,102693.63
2022-12-18T22:02:48.388Z,102647.91
2022-12-18T22:05:30.741Z,102664.59
2022-12-18T22:07:58.074Z,102658.25
2022-12-18T22:10:25.471Z,102644.53
2022-12-18T22:12:55.164Z,102643.47
2022-12-18T22:15:22.545Z,102669.34
2022-12-18T22:17:53.450Z,102667.34
2022-12-18T22:20:29.843Z,102645.00
2022-12-18T22:22:57.830Z,102598.16
2022-12-18T22:25:25.174Z,102649.16
2022-12-18T22:28:10.898Z,102638.97
2022-12-18T22:30:38.492Z,102652.56
2022-12-18T22:33:05.833Z,102615.91
2022-12-18T22:35:33.282Z,102667.72
2022-12-18T22:38:01.835Z,102663.47
2022-12-18T22:40:29.597Z,102635.06
2022-12-18T22:43:02.836Z,102629.53
2022-12-18T22:45:30.192Z,102586.78
2022-12-18T22:47:57.605Z,102618.50
2022-12-18T22:50:24.928Z,102621.28
2022-12-18T22:52:52.278Z,102619.28
2022-12-18T22:55:19.943Z,102635.94
2022-12-18T22:57:48.480Z,102623.38
2022-12-18T23:00:24.330Z,102577.88
2022-12-18T23:03:00.188Z,102514.97
2022-12-18T23:05:29.982Z,102621.72
2022-12-18T23:07:57.648Z,102623.34
2022-12-18T23:10:25.019Z,102597.88
2022-12-18T23:12:52.347Z,102644.97
2022-12-18T23:15:19.871Z,102627.97
2022-12-18T23:17:59.548Z,102655.47
2022-12-18T23:20:27.723Z,102628.53
2022-12-18T23:22:55.050Z,102620.19
2022-12-18T23:25:22.401Z,102638.81
2022-12-18T23:27:49.765Z,102611.72
2022-12-18T23:30:17.125Z,102599.91
2022-12-18T23:32:44.683Z,102648.72
2022-12-18T23:35:15.586Z,102622.69
2022-12-18T23:38:00.496Z,102668.63
2022-12-18T23:40:29.842Z,102670.97
2022-12-18T23:42:58.581Z,102658.25
2022-12-18T23:45:25.955Z,102660.81
2022-12-18T23:47:53.209Z,102655.31
2022-12-18T23:50:22.095Z,102683.25
2022-12-18T23:52:56.507Z,102681.38
2022-12-18T23:55:28.250Z,102623.06
2022-12-18T23:57:55.730Z,102649.69
